createdAt,value
2022-09-14T00:01:03.100Z,77.49
2022-09-14T00:03:40.552Z,77.57
2022-09-14T00:06:14.235Z,77.78
2022-09-14T00:08:46.336Z,77.81
2022-09-14T00:11:21.396Z,77.82
2022-09-14T00:13:53.573Z,77.73
2022-09-14T00:16:27.830Z,77.83
2022-09-14T00:19:05.724Z,77.87
2022-09-14T00:21:42.609Z,77.89
2022-09-14T00:24:14.812Z,77.84
2022-09-14T00:26:48.274Z,77.80
2022-09-14T00:29:20.641Z,77.93
2022-09-14T00:31:54.716Z,77.84
2022-09-14T00:34:26.971Z,77.73
2022-09-14T00:37:02.475Z,77.69
2022-09-14T00:39:34.205Z,77.72
2022-09-14T00:42:09.465Z,77.67
2022-09-14T00:45:08.356Z,77.71
2022-09-14T00:47:40.338Z,77.92
2022-09-14T00:50:12.861Z,78.00
2022-09-14T00:52:54.698Z,78.00
2022-09-14T00:55:26.857Z,77.90
2022-09-14T00:57:58.709Z,78.08
2022-09-14T01:00:32.323Z,78.00
2022-09-14T01:03:05.844Z,78.00
2022-09-14T01:05:57.353Z,78.01
2022-09-14T01:08:51.211Z,78.06
2022-09-14T01:11:36.866Z,77.95
2022-09-14T01:14:18.781Z,78.06
2022-09-14T01:17:00.752Z,78.03
2022-09-14T01:19:44.335Z,78.10
2022-09-14T01:22:27.191Z,78.10
2022-09-14T01:25:10.524Z,77.98
2022-09-14T01:27:44.188Z,77.91
2022-09-14T01:30:26.212Z,77.96
2022-09-14T01:33:05.877Z,77.86
2022-09-14T01:35:43.800Z,77.93
2022-09-14T01:38:20.298Z,78.00
2022-09-14T01:40:57.192Z,78.04
2022-09-14T01:43:36.573Z,77.98
2022-09-14T01:46:12.588Z,77.98
2022-09-14T01:48:49.772Z,77.93
2022-09-14T01:51:30.628Z,77.85
2022-09-14T01:54:08.676Z,77.90
2022-09-14T01:56:45.843Z,77.59
2022-09-14T01:59:21.691Z,77.82
2022-09-14T02:02:01.559Z,77.70
2022-09-14T02:04:40.050Z,77.39
2022-09-14T02:07:12.425Z,77.43
2022-09-14T02:09:44.855Z,77.56
2022-09-14T02:12:19.126Z,77.38
2022-09-14T02:14:53.717Z,77.43
2022-09-14T02:17:26.077Z,77.18
2022-09-14T02:20:00.067Z,77.06
2022-09-14T02:22:34.737Z,77.08
2022-09-14T02:25:08.735Z,77.11
2022-09-14T02:27:40.543Z,77.05
2022-09-14T02:30:14.777Z,77.06
2022-09-14T02:32:58.085Z,77.05
2022-09-14T02:35:37.308Z,77.07
2022-09-14T02:38:16.768Z,77.03
2022-09-14T02:40:56.365Z,77.10
2022-09-14T02:43:39.647Z,77.14
2022-09-14T02:46:18.459Z,76.98
2022-09-14T02:48:58.084Z,77.02
2022-09-14T02:51:35.431Z,77.00
2022-09-14T02:54:13.985Z,76.89
2022-09-14T02:56:46.197Z,77.11
2022-09-14T02:59:19.491Z,76.97
2022-09-14T03:01:51.329Z,76.95
2022-09-14T03:04:24.793Z,76.99
2022-09-14T03:06:56.870Z,76.94
2022-09-14T03:09:28.654Z,77.15
2022-09-14T03:12:00.500Z,77.16
2022-09-14T03:14:33.152Z,77.18
2022-09-14T03:17:04.894Z,77.28
2022-09-14T03:19:36.692Z,77.07
2022-09-14T03:22:08.470Z,77.23
2022-09-14T03:24:42.591Z,77.09
2022-09-14T03:27:14.271Z,77.22
2022-09-14T03:29:47.735Z,77.18
2022-09-14T03:32:19.494Z,77.10
2022-09-14T03:34:53.215Z,77.09
2022-09-14T03:37:25.005Z,77.15
2022-09-14T03:39:56.779Z,77.03
2022-09-14T03:42:28.615Z,77.16
2022-09-14T03:45:01.236Z,77.08
2022-09-14T03:47:32.947Z,77.16
2022-09-14T03:50:11.824Z,77.24
2022-09-14T03:52:43.649Z,77.25
2022-09-14T03:55:15.512Z,77.21
2022-09-14T03:57:47.272Z,77.25
2022-09-14T04:00:27.785Z,77.15
2022-09-14T04:03:00.899Z,77.32
2022-09-14T04:05:32.791Z,77.42
2022-09-14T04:08:04.835Z,77.49
2022-09-14T04:10:39.133Z,77.49
2022-09-14T04:13:10.775Z,77.49
2022-09-14T04:15:42.563Z,77.51
2022-09-14T04:18:14.341Z,77.57
2022-09-14T04:20:48.658Z,77.35
2022-09-14T04:23:20.333Z,77.32
2022-09-14T04:25:52.668Z,77.20
2022-09-14T04:28:25.611Z,77.28
2022-09-14T04:31:05.092Z,77.28
2022-09-14T04:33:38.686Z,77.43
2022-09-14T04:36:13.584Z,77.44
2022-09-14T04:38:46.907Z,77.34
2022-09-14T04:41:22.182Z,77.29
2022-09-14T04:43:55.783Z,77.17
2022-09-14T04:46:29.909Z,76.95
2022-09-14T04:49:04.941Z,76.92
2022-09-14T04:51:39.388Z,76.83
2022-09-14T04:54:14.409Z,76.87
2022-09-14T04:56:53.191Z,76.73
2022-09-14T04:59:24.834Z,76.62
2022-09-14T05:01:57.481Z,76.69
2022-09-14T05:04:29.479Z,76.76
2022-09-14T05:07:07.612Z,76.61
2022-09-14T05:09:40.573Z,76.67
2022-09-14T05:12:12.546Z,76.49
2022-09-14T05:14:44.286Z,76.39
2022-09-14T05:17:16.077Z,76.32
2022-09-14T05:19:47.909Z,76.10
2022-09-14T05:22:22.698Z,76.05
2022-09-14T05:24:54.577Z,76.09
2022-09-14T05:27:26.402Z,75.95
2022-09-14T05:29:58.122Z,75.70
2022-09-14T05:32:29.812Z,75.65
2022-09-14T05:35:01.548Z,75.41
2022-09-14T05:37:35.009Z,75.31
2022-09-14T05:40:09.721Z,75.44
2022-09-14T05:42:42.326Z,75.31
2022-09-14T05:45:15.281Z,75.05
2022-09-14T05:47:48.204Z,75.11
2022-09-14T05:53:19.897Z,74.85
2022-09-14T05:55:59.828Z,75.05
2022-09-14T05:58:32.294Z,74.86
2022-09-14T06:01:09.368Z,74.89
2022-09-14T06:03:41.281Z,74.83
2022-09-14T06:06:15.068Z,74.71
2022-09-14T06:08:50.221Z,74.49
2022-09-14T06:11:24.788Z,74.14
2022-09-14T06:13:58.305Z,73.83
2022-09-14T06:16:30.760Z,73.67
2022-09-14T06:19:03.325Z,73.66
2022-09-14T06:21:36.477Z,73.11
2022-09-14T06:24:08.299Z,73.13
2022-09-14T06:26:40.063Z,72.58
2022-09-14T06:29:11.824Z,72.64
2022-09-14T06:31:43.499Z,72.67
2022-09-14T06:34:15.312Z,72.71
2022-09-14T06:36:46.975Z,72.36
2022-09-14T06:39:18.802Z,72.22
2022-09-14T06:41:51.978Z,72.26
2022-09-14T06:44:23.877Z,71.47
2022-09-14T06:46:55.546Z,71.72
2022-09-14T06:49:28.171Z,71.66
2022-09-14T06:52:00.911Z,71.74
2022-09-14T06:54:33.985Z,71.25
2022-09-14T06:57:07.045Z,71.43
2022-09-14T06:59:38.765Z,71.45
2022-09-14T07:02:15.138Z,71.27
2022-09-14T07:04:46.947Z,71.22
2022-09-14T07:07:19.378Z,71.48
2022-09-14T07:09:54.494Z,71.37
2022-09-14T07:12:26.214Z,71.24
2022-09-14T07:14:59.604Z,71.07
2022-09-14T07:17:31.407Z,70.70
2022-09-14T07:20:03.551Z,70.44
2022-09-14T07:22:36.946Z,70.57
2022-09-14T07:25:12.883Z,70.40
2022-09-14T07:27:44.671Z,70.35
2022-09-14T07:30:21.245Z,70.17
2022-09-14T07:32:52.988Z,69.94
2022-09-14T07:35:24.758Z,69.38
2022-09-14T07:37:56.557Z,69.63
2022-09-14T07:40:30.057Z,69.41
2022-09-14T07:43:02.089Z,68.99
2022-09-14T07:45:35.951Z,69.20
2022-09-14T07:48:08.179Z,68.99
2022-09-14T07:50:43.997Z,68.61
2022-09-14T07:53:15.852Z,68.46
2022-09-14T07:55:48.115Z,68.40
2022-09-14T07:58:19.838Z,68.58
2022-09-14T08:00:52.425Z,68.43
2022-09-14T08:03:25.376Z,68.11
2022-09-14T08:06:03.174Z,67.82
2022-09-14T08:08:37.102Z,67.91
2022-09-14T08:11:12.909Z,68.00
2022-09-14T08:13:46.842Z,67.61
2022-09-14T08:16:19.616Z,67.54
2022-09-14T08:18:56.909Z,66.77
2022-09-14T08:21:30.961Z,66.64
2022-09-14T08:24:04.368Z,66.41
2022-09-14T08:26:37.591Z,66.67
2022-09-14T08:29:09.652Z,65.77
2022-09-14T08:31:43.363Z,64.58
2022-09-14T08:34:48.191Z,65.43
2022-09-14T08:37:20.519Z,65.71
2022-09-14T08:39:53.418Z,64.06
2022-09-14T08:42:26.193Z,63.43
2022-09-14T08:45:01.986Z,64.09
2022-09-14T08:47:39.038Z,63.98
2022-09-14T08:50:18.534Z,63.95
2022-09-14T08:52:53.086Z,64.55
2022-09-14T08:55:36.591Z,64.06
2022-09-14T08:58:20.749Z,63.41
2022-09-14T09:00:56.409Z,62.68
2022-09-14T09:03:49.927Z,63.04
2022-09-14T09:06:30.408Z,62.60
2022-09-14T09:09:10.171Z,62.28
2022-09-14T09:11:46.477Z,60.88
2022-09-14T09:14:23.721Z,61.53
2022-09-14T09:16:58.235Z,61.01
2022-09-14T09:19:35.572Z,60.60
2022-09-14T09:22:13.599Z,61.08
2022-09-14T09:24:50.105Z,60.82
2022-09-14T09:27:22.082Z,60.34
2022-09-14T09:29:55.568Z,60.59
2022-09-14T09:32:28.709Z,58.95
2022-09-14T09:35:28.109Z,59.83
2022-09-14T09:37:59.969Z,59.57
2022-09-14T09:40:41.450Z,58.28
2022-09-14T09:43:21.319Z,58.85
2022-09-14T09:46:09.533Z,58.17
2022-09-14T09:48:48.487Z,58.52
2022-09-14T09:51:30.048Z,58.30
2022-09-14T09:54:08.690Z,57.65
2022-09-14T09:56:52.148Z,57.00
2022-09-14T09:59:36.424Z,56.82
2022-09-14T10:02:31.225Z,57.41
2022-09-14T10:05:07.172Z,56.76
2022-09-14T10:07:42.073Z,56.72
2022-09-14T10:10:16.140Z,56.87
2022-09-14T10:12:53.575Z,55.77
2022-09-14T10:15:26.988Z,56.85
2022-09-14T10:18:09.043Z,57.26
2022-09-14T10:20:44.266Z,56.34
2022-09-14T10:23:26.211Z,55.81
2022-09-14T10:26:20.328Z,55.56
2022-09-14T10:28:53.510Z,56.46
2022-09-14T10:31:32.334Z,54.51
2022-09-14T10:34:17.207Z,54.42
2022-09-14T10:36:56.713Z,55.59
2022-09-14T10:39:36.919Z,54.45
2022-09-14T10:42:17.794Z,53.38
2022-09-14T10:45:01.260Z,54.66
2022-09-14T10:48:00.444Z,54.36
2022-09-14T10:50:42.962Z,52.79
2022-09-14T10:53:31.419Z,51.74
2022-09-14T10:56:07.556Z,51.80
2022-09-14T10:58:58.818Z,52.58
2022-09-14T11:01:44.414Z,51.98
2022-09-14T11:04:27.938Z,51.95
2022-09-14T11:07:08.084Z,52.80
2022-09-14T11:09:49.795Z,52.51
2022-09-14T11:12:30.346Z,51.42
2022-09-14T11:15:09.677Z,51.38
2022-09-14T11:18:08.487Z,51.20
2022-09-14T11:21:05.052Z,50.58
2022-09-14T11:23:49.226Z,51.09
2022-09-14T11:26:31.486Z,51.27
2022-09-14T11:29:12.509Z,50.82
2022-09-14T11:32:10.161Z,49.59
2022-09-14T11:34:54.773Z,50.34
2022-09-14T11:37:37.473Z,49.90
2022-09-14T11:40:24.378Z,50.21
2022-09-14T11:43:06.015Z,50.08
2022-09-14T11:45:43.296Z,48.76
2022-09-14T11:48:41.877Z,50.28
2022-09-14T11:51:18.434Z,50.06
2022-09-14T11:53:50.950Z,50.17
2022-09-14T11:56:27.569Z,50.10
2022-09-14T11:59:03.484Z,49.54
2022-09-14T12:01:37.807Z,50.22
2022-09-14T12:04:19.423Z,50.62
2022-09-14T12:06:59.370Z,50.21
2022-09-14T12:09:54.956Z,50.73
2022-09-14T12:12:41.577Z,50.21
2022-09-14T12:15:20.228Z,48.97
2022-09-14T12:17:53.423Z,49.62
2022-09-14T12:20:41.485Z,50.20
2022-09-14T12:23:26.502Z,50.61
2022-09-14T12:26:02.156Z,49.81
2022-09-14T12:28:48.171Z,49.43
2022-09-14T12:31:58.075Z,49.88
2022-09-14T12:34:33.830Z,49.15
2022-09-14T12:37:37.104Z,49.03
2022-09-14T12:40:35.957Z,48.70
2022-09-14T12:43:47.325Z,50.12
2022-09-14T12:46:38.679Z,49.86
2022-09-14T12:49:39.273Z,50.38
2022-09-14T12:52:30.068Z,49.15
2022-09-14T12:55:21.337Z,49.66
2022-09-14T12:58:01.582Z,50.14
2022-09-14T13:00:48.099Z,49.47
2022-09-14T13:03:43.333Z,49.55
2022-09-14T13:06:15.903Z,49.62
2022-09-14T13:08:50.430Z,49.47
2022-09-14T13:11:29.882Z,48.90
2022-09-14T13:14:03.213Z,49.71
2022-09-14T13:16:42.616Z,49.68
2022-09-14T13:19:27.432Z,49.64
2022-09-14T13:22:00.690Z,49.17
2022-09-14T13:24:38.861Z,49.45
2022-09-14T13:27:22.709Z,49.80
2022-09-14T13:30:08.587Z,49.35
2022-09-14T13:32:44.860Z,49.91
2022-09-14T13:35:25.879Z,49.67
2022-09-14T13:37:56.331Z,49.55
2022-09-14T13:40:31.318Z,49.72
2022-09-14T13:43:03.679Z,49.79
2022-09-14T13:45:37.119Z,49.50
2022-09-14T13:48:09.315Z,49.44
2022-09-14T13:50:42.018Z,49.61
2022-09-14T13:53:42.090Z,49.56
2022-09-14T13:56:23.246Z,49.81
2022-09-14T13:59:18.954Z,50.02
2022-09-14T14:01:57.193Z,50.38
2022-09-14T14:04:36.082Z,50.30
2022-09-14T14:07:19.110Z,50.22
2022-09-14T14:09:54.785Z,50.31
2022-09-14T14:12:30.138Z,50.21
2022-09-14T14:15:03.677Z,50.01
2022-09-14T14:17:38.671Z,50.24
2022-09-14T14:20:35.346Z,50.12
2022-09-14T14:23:26.316Z,49.69
2022-09-14T14:26:07.577Z,50.13
2022-09-14T14:28:40.744Z,50.30
2022-09-14T14:31:18.496Z,50.55
2022-09-14T14:33:53.413Z,50.67
2022-09-14T14:36:25.148Z,50.86
2022-09-14T14:38:58.596Z,50.88
2022-09-14T14:41:30.318Z,50.94
2022-09-14T14:44:02.305Z,51.02
2022-09-14T14:46:34.295Z,51.12
2022-09-14T14:49:06.078Z,50.99
2022-09-14T14:51:39.654Z,51.26
2022-09-14T14:54:11.789Z,51.41
2022-09-14T14:56:44.149Z,51.46
2022-09-14T14:59:31.118Z,51.59
2022-09-14T15:02:03.132Z,51.09
2022-09-14T15:04:35.206Z,51.39
2022-09-14T15:07:06.995Z,51.23
2022-09-14T15:09:38.739Z,51.43
2022-09-14T15:12:10.939Z,51.88
2022-09-14T15:14:42.918Z,52.06
2022-09-14T15:17:15.489Z,52.01
2022-09-14T15:19:47.261Z,52.14
2022-09-14T15:22:19.112Z,52.26
2022-09-14T15:24:50.847Z,52.13
2022-09-14T15:27:22.630Z,52.03
2022-09-14T15:29:57.658Z,52.23
2022-09-14T15:32:29.391Z,52.39
2022-09-14T15:35:01.408Z,52.32
2022-09-14T15:37:39.876Z,52.53
2022-09-14T15:40:15.471Z,52.60
2022-09-14T15:42:47.207Z,52.73
2022-09-14T15:45:19.645Z,52.64
2022-09-14T15:47:51.390Z,53.02
2022-09-14T15:50:25.553Z,52.96
2022-09-14T15:53:02.418Z,52.90
2022-09-14T15:55:34.535Z,53.15
2022-09-14T15:58:06.418Z,53.04
2022-09-14T16:00:43.461Z,53.24
2022-09-14T16:03:15.337Z,53.44
2022-09-14T16:05:47.147Z,53.68
2022-09-14T16:08:19.199Z,53.96
2022-09-14T16:10:59.262Z,53.75
2022-09-14T16:13:31.357Z,53.97
2022-09-14T16:16:08.393Z,54.39
2022-09-14T16:18:41.093Z,54.57
2022-09-14T16:21:17.088Z,54.49
2022-09-14T16:23:51.224Z,54.76
2022-09-14T16:26:25.131Z,55.05
2022-09-14T16:28:57.381Z,55.12
2022-09-14T16:31:31.827Z,55.33
2022-09-14T16:34:06.167Z,55.41
2022-09-14T16:36:39.935Z,55.36
2022-09-14T16:39:14.258Z,55.35
2022-09-14T16:41:47.347Z,55.75
2022-09-14T16:44:25.781Z,55.96
2022-09-14T16:46:59.239Z,56.07
2022-09-14T16:49:31.191Z,56.39
2022-09-14T16:52:04.254Z,56.60
2022-09-14T16:54:36.220Z,56.55
2022-09-14T16:57:08.332Z,56.82
2022-09-14T16:59:40.459Z,56.73
2022-09-14T17:02:14.865Z,56.96
2022-09-14T17:04:46.974Z,57.29
2022-09-14T17:07:19.288Z,57.04
2022-09-14T17:09:52.121Z,57.61
2022-09-14T17:12:24.719Z,57.66
2022-09-14T17:14:56.970Z,57.80
2022-09-14T17:17:29.480Z,57.93
2022-09-14T17:20:01.763Z,58.00
2022-09-14T17:22:39.596Z,58.21
2022-09-14T17:25:16.810Z,58.03
2022-09-14T17:27:49.553Z,58.40
2022-09-14T17:30:23.855Z,58.35
2022-09-14T17:32:58.734Z,58.19
2022-09-14T17:35:30.958Z,58.24
2022-09-14T17:38:03.119Z,58.31
2022-09-14T17:40:35.314Z,58.41
2022-09-14T17:43:08.213Z,58.55
2022-09-14T17:45:40.602Z,58.77
2022-09-14T17:48:12.798Z,58.65
2022-09-14T17:50:44.956Z,58.86
2022-09-14T17:53:17.723Z,58.96
2022-09-14T17:55:50.145Z,59.06
2022-09-14T17:58:22.479Z,58.98
2022-09-14T18:01:06.492Z,59.04
2022-09-14T18:03:39.694Z,59.33
2022-09-14T18:06:13.886Z,59.40
2022-09-14T18:08:46.731Z,59.44
2022-09-14T18:11:19.900Z,59.35
2022-09-14T18:13:53.904Z,59.51
2022-09-14T18:16:27.517Z,59.48
2022-09-14T18:19:01.007Z,59.41
2022-09-14T18:21:33.346Z,59.68
2022-09-14T18:24:06.541Z,59.92
2022-09-14T18:26:39.358Z,60.07
2022-09-14T18:29:14.873Z,60.02
2022-09-14T18:31:47.387Z,60.22
2022-09-14T18:34:21.463Z,60.56
2022-09-14T18:36:54.889Z,60.60
2022-09-14T18:39:27.081Z,60.52
2022-09-14T18:41:59.199Z,60.41
2022-09-14T18:44:31.159Z,60.58
2022-09-14T18:47:04.041Z,60.52
2022-09-14T18:49:35.923Z,60.75
2022-09-14T18:52:07.854Z,60.84
2022-09-14T18:54:39.687Z,61.07
2022-09-14T18:57:11.652Z,61.07
2022-09-14T18:59:43.645Z,61.09
2022-09-14T19:02:15.874Z,61.46
2022-09-14T19:04:49.111Z,61.26
2022-09-14T19:07:20.991Z,61.38
2022-09-14T19:09:53.074Z,61.67
2022-09-14T19:12:25.329Z,61.65
2022-09-14T19:14:57.693Z,61.63
2022-09-14T19:17:29.735Z,61.90
2022-09-14T19:20:02.063Z,61.96
2022-09-14T19:22:34.162Z,62.14
2022-09-14T19:25:07.605Z,62.17
2022-09-14T19:27:39.492Z,62.25
2022-09-14T19:30:18.955Z,62.48
2022-09-14T19:32:50.912Z,62.66
2022-09-14T19:35:23.563Z,62.72
2022-09-14T19:37:55.780Z,62.71
2022-09-14T19:40:28.694Z,62.69
2022-09-14T19:43:00.598Z,63.10
2022-09-14T19:45:32.884Z,63.15
2022-09-14T19:48:05.214Z,63.17
2022-09-14T19:50:38.698Z,63.14
2022-09-14T19:53:10.478Z,63.02
2022-09-14T19:55:42.283Z,63.36
2022-09-14T19:58:14.017Z,63.52
2022-09-14T20:00:47.421Z,63.51
2022-09-14T20:03:19.527Z,63.67
2022-09-14T20:05:59.580Z,63.79
2022-09-14T20:08:32.304Z,63.88
2022-09-14T20:11:09.078Z,63.95
2022-09-14T20:13:41.551Z,64.16
2022-09-14T20:16:15.798Z,63.97
2022-09-14T20:18:48.839Z,64.18
2022-09-14T20:21:23.896Z,64.17
2022-09-14T20:24:19.296Z,64.37
2022-09-14T20:26:53.236Z,64.11
2022-09-14T20:29:26.180Z,64.21
2022-09-14T20:31:58.186Z,64.35
2022-09-14T20:34:30.321Z,64.67
2022-09-14T20:37:02.138Z,64.27
2022-09-14T20:39:36.057Z,64.17
2022-09-14T20:42:10.055Z,64.45
2022-09-14T20:44:41.969Z,64.54
2022-09-14T20:47:13.804Z,64.63
2022-09-14T20:49:45.647Z,64.71
2022-09-14T20:52:19.225Z,64.82
2022-09-14T20:54:50.983Z,65.03
2022-09-14T20:57:24.293Z,64.95
2022-09-14T20:59:57.741Z,64.97
2022-09-14T21:02:30.725Z,64.93
2022-09-14T21:05:02.544Z,64.94
2022-09-14T21:07:34.468Z,65.17
2022-09-14T21:10:10.385Z,65.02
2022-09-14T21:12:43.259Z,64.75
2022-09-14T21:15:15.860Z,65.02
2022-09-14T21:17:52.686Z,65.02
2022-09-14T21:20:25.780Z,65.15
2022-09-14T21:23:00.235Z,65.44
2022-09-14T21:25:35.815Z,65.48
2022-09-14T21:28:08.878Z,65.48
2022-09-14T21:30:41.039Z,65.46
2022-09-14T21:33:17.425Z,65.59
2022-09-14T21:35:50.140Z,65.70
2022-09-14T21:38:22.345Z,65.67
2022-09-14T21:40:55.095Z,65.99
2022-09-14T21:43:30.037Z,65.95
2022-09-14T21:46:02.462Z,66.07
2022-09-14T21:48:36.150Z,66.05
2022-09-14T21:51:15.827Z,65.74
2022-09-14T21:53:49.402Z,66.01
2022-09-14T21:56:23.507Z,66.16
2022-09-14T21:58:57.697Z,65.88
2022-09-14T22:01:30.946Z,66.02
2022-09-14T22:04:04.463Z,66.41
2022-09-14T22:06:36.994Z,66.38
2022-09-14T22:09:09.497Z,65.79
2022-09-14T22:11:49.639Z,65.95
2022-09-14T22:14:23.951Z,66.03
2022-09-14T22:16:56.545Z,66.02
2022-09-14T22:19:30.772Z,66.24
2022-09-14T22:22:03.857Z,66.06
2022-09-14T22:24:39.744Z,65.93
2022-09-14T22:27:13.246Z,65.75
2022-09-14T22:29:45.594Z,65.97
2022-09-14T22:32:20.918Z,66.10
2022-09-14T22:34:53.701Z,66.00
2022-09-14T22:37:25.785Z,66.15
2022-09-14T22:39:57.916Z,66.31
2022-09-14T22:42:31.584Z,66.15
2022-09-14T22:45:03.647Z,66.31
2022-09-14T22:47:35.792Z,66.39
2022-09-14T22:50:20.372Z,66.37
2022-09-14T22:52:52.362Z,66.43
2022-09-14T22:55:25.719Z,66.53
2022-09-14T22:57:57.828Z,66.51
2022-09-14T23:00:33.218Z,66.53
2022-09-14T23:03:05.339Z,66.73
2022-09-14T23:05:38.119Z,66.54
2022-09-14T23:08:11.959Z,66.73
2022-09-14T23:10:45.651Z,66.64
2022-09-14T23:13:18.196Z,66.77
2022-09-14T23:15:50.277Z,66.83
2022-09-14T23:18:22.866Z,66.82
2022-09-14T23:20:57.522Z,67.00
2022-09-14T23:23:29.610Z,67.00
2022-09-14T23:26:06.761Z,67.14
2022-09-14T23:28:39.474Z,67.28
2022-09-14T23:31:13.298Z,67.23
2022-09-14T23:33:45.719Z,67.16
2022-09-14T23:36:17.870Z,67.20
2022-09-14T23:38:50.029Z,67.33
2022-09-14T23:41:26.979Z,67.38
2022-09-14T23:43:58.862Z,67.40
2022-09-14T23:46:31.600Z,67.51
2022-09-14T23:49:03.514Z,67.65
2022-09-14T23:51:37.800Z,67.64
2022-09-14T23:54:10.703Z,67.55
2022-09-14T23:56:42.721Z,67.55
2022-09-14T23:59:16.322Z,67.61
